Terminal Aerodrome Forecast
Issued by NWS

Home | Current Version | Previous Version | Text Only | Print | Product List | Glossary On
Versions: 1 2 3 4 5 6 7 8 9 10 11 12 13 14 15 16 17 18 19 20 21 22 23
000
FTUS45 KGJT 232341
TAFMTJ
TAF
KMTJ 232341Z 2400/2424 27013KT 3SM -SN BKN030 OVC045
      TEMPO 2400/2401 22025G40KT 1SM -SN OVC020
     FM240100 24015G23KT 5SM -SHSN BR BKN020
     FM240300 23012KT P6SM VCSH BKN040 OVC060
     FM240600 20006KT P6SM BKN025
     FM241200 17004KT 3SM -SN BR OVC020
     FM241800 29007KT 1SM -SN BR OVC015=

USA.gov is the U.S. government's official web portal to all federal, state and local government web resources and services.